Time;durP1;ratioP1;P1;durP2;ratioP2;P2;SDS_P1;SDS_P2;PMS_P1;PMS_P2;Temp;Humidity;BMP_temperature;BMP_pressure;BME280_temperature;BME280_humidity;BME280_pressure;Samples;Min_cycle;Max_cycle;Signal;HPM_P1;HPM_P2
2022/04/10 00:01:44;;;;;;;17.62;7.92;;;;;;;9.48;98.47;150038.00;1781065;79;20976;-69
2022/04/10 00:04:11;;;;;;;19.95;7.20;;;;;;;9.45;98.75;150030.22;1779433;80;21501;-67
2022/04/10 00:06:38;;;;;;;18.02;7.03;;;;;;;9.43;99.02;150026.36;1778793;80;20998;-67
2022/04/10 00:09:05;;;;;;;25.77;7.35;;;;;;;9.39;99.22;150015.94;1779947;80;21210;-67
2022/04/10 00:11:34;;;;;;;16.77;7.08;;;;;;;9.36;99.40;150008.17;1776947;79;20990;-67
2022/04/10 00:14:03;;;;;;;20.80;7.15;;;;;;;9.35;99.64;150005.58;1779746;80;21109;-68
2022/04/10 00:16:31;;;;;;;26.90;7.15;;;;;;;9.31;99.80;149995.22;1778825;80;21014;-67
2022/04/10 00:19:04;;;;;;;19.80;7.35;;;;;;;9.28;100.00;149988.77;1777110;80;21031;-68
2022/04/10 00:21:28;;;;;;;23.32;7.47;;;;;;;9.27;100.00;149984.86;1781676;79;21386;-67
2022/04/10 00:23:55;;;;;;;20.68;6.62;;;;;;;9.25;100.00;149979.67;1774719;79;21474;-68
2022/04/10 00:26:24;;;;;;;20.65;6.92;;;;;;;9.22;100.00;149971.91;1780466;79;20975;-64
2022/04/10 00:28:51;;;;;;;21.02;7.12;;;;;;;9.17;100.00;149961.53;1778459;80;21333;-63
2022/04/10 00:31:18;;;;;;;33.38;7.78;;;;;;;9.20;100.00;149966.72;1780237;80;21098;-68
2022/04/10 00:33:46;;;;;;;24.37;7.25;;;;;;;9.19;100.00;149964.12;1780049;80;21480;-63
2022/04/10 00:36:14;;;;;;;21.75;7.30;;;;;;;9.19;100.00;149964.12;1778093;79;21731;-66
2022/04/10 00:38:41;;;;;;;19.35;7.00;;;;;;;9.22;100.00;149973.17;1777393;80;20959;-67
2022/04/10 00:41:11;;;;;;;21.93;6.80;;;;;;;9.25;100.00;149979.67;1776600;80;21094;-64
2022/04/10 00:43:39;;;;;;;18.87;7.10;;;;;;;9.29;100.00;149991.36;1774790;79;21050;-63
2022/04/10 00:46:07;;;;;;;21.25;7.62;;;;;;;9.26;100.00;149983.53;1780346;79;21225;-67
2022/04/10 00:48:36;;;;;;;23.67;8.10;;;;;;;9.24;100.00;149977.08;1777640;79;21082;-67
2022/04/10 00:53:49;;;;;;;20.32;7.15;;;;;;;9.19;100.00;149964.12;1776330;80;21050;-67
2022/04/10 00:56:17;;;;;;;21.37;6.85;;;;;;;9.19;100.00;149964.12;1777969;80;21029;-67
2022/04/10 00:58:44;;;;;;;27.00;7.55;;;;;;;9.18;100.00;149962.81;1776558;80;21063;-67
2022/04/10 01:01:12;;;;;;;19.92;7.83;;;;;;;9.19;100.00;149964.12;1779095;79;21018;-63
2022/04/10 01:03:40;;;;;;;21.50;8.50;;;;;;;9.19;100.00;149964.12;1781404;79;21081;-63
2022/04/10 01:06:09;;;;;;;19.92;7.55;;;;;;;9.19;100.00;149965.41;1776668;80;21071;-65
2022/04/10 01:08:37;;;;;;;17.45;7.87;;;;;;;9.18;100.00;149962.81;1776933;80;21058;-64
2022/04/10 01:11:04;;;;;;;24.43;8.83;;;;;;;9.19;100.00;149964.12;1784227;79;22042;-63
2022/04/10 01:13:31;;;;;;;20.97;8.70;;;;;;;9.19;100.00;149964.12;1783257;80;21039;-64
2022/04/10 01:15:59;;;;;;;23.42;8.05;;;;;;;9.17;100.00;149960.22;1738689;80;21076;-69
2022/04/10 01:18:26;;;;;;;18.67;7.53;;;;;;;9.18;100.00;149962.81;1776656;80;21038;-69
2022/04/10 01:20:55;;;;;;;21.20;7.55;;;;;;;9.22;100.00;149971.91;1753253;80;21015;-64
2022/04/10 01:23:23;;;;;;;27.58;8.80;;;;;;;9.21;100.00;149969.31;1777327;80;21038;-67
2022/04/10 01:25:52;;;;;;;25.97;8.08;;;;;;;9.17;100.00;149961.53;1783374;80;21039;-67
2022/04/10 01:28:19;;;;;;;21.10;7.90;;;;;;;9.17;100.00;149961.53;1777056;80;21269;-67
2022/04/10 01:30:48;;;;;;;18.10;7.35;;;;;;;9.16;100.00;149958.91;1772835;80;21002;-67
2022/04/10 01:33:15;;;;;;;19.32;7.65;;;;;;;9.12;100.00;149948.53;1774242;79;21053;-62
2022/04/10 01:35:43;;;;;;;21.97;7.80;;;;;;;9.09;100.00;149939.50;1775800;80;21220;-63
2022/04/10 01:38:13;;;;;;;19.67;8.15;;;;;;;9.06;100.00;149933.00;1775701;78;21473;-64
2022/04/10 01:40:42;;;;;;;21.97;7.30;;;;;;;9.06;100.00;149931.69;1754122;80;21547;-68
2022/04/10 01:43:09;;;;;;;17.90;7.62;;;;;;;9.03;100.00;149925.23;1777358;80;21069;-64
2022/04/10 01:45:37;;;;;;;22.80;7.47;;;;;;;9.01;100.00;149920.05;1782321;80;21007;-64
2022/04/10 01:48:05;;;;;;;20.05;7.83;;;;;;;8.98;100.00;149913.55;1771796;80;21188;-68
2022/04/10 01:50:33;;;;;;;23.27;7.53;;;;;;;8.99;100.00;149914.87;1773152;80;20995;-68
2022/04/10 01:53:05;;;;;;;22.42;7.67;;;;;;;8.96;100.00;149907.09;1750510;79;21107;-69
2022/04/10 01:55:34;;;;;;;23.75;8.20;;;;;;;8.94;100.00;149901.87;1781908;79;21560;-64
2022/04/10 01:58:01;;;;;;;24.07;8.83;;;;;;;8.92;100.00;149896.69;1777288;80;22213;-64
2022/04/10 02:00:30;;;;;;;20.32;8.03;;;;;;;8.88;100.00;149888.92;1779957;79;21122;-64
2022/04/10 02:02:58;;;;;;;25.57;9.43;;;;;;;8.86;100.00;149883.73;1775389;80;21091;-64
2022/04/10 02:05:25;;;;;;;23.45;8.33;;;;;;;8.84;100.00;149878.56;1766699;80;21031;-63
2022/04/10 02:07:52;;;;;;;23.85;9.38;;;;;;;8.83;100.00;149874.66;1752917;80;21051;-63
2022/04/10 02:10:21;;;;;;;23.62;10.55;;;;;;;8.81;100.00;149870.80;1777285;80;20955;-63
2022/04/10 02:12:49;;;;;;;27.27;10.63;;;;;;;8.79;100.00;149864.30;1776648;80;21401;-63
2022/04/10 02:15:18;;;;;;;22.05;9.83;;;;;;;8.79;100.00;149864.30;1772677;80;22158;-64
2022/04/10 02:17:45;;;;;;;23.22;10.48;;;;;;;8.79;100.00;149864.30;1772274;80;21471;-65
2022/04/10 02:20:14;;;;;;;54.18;22.52;;;;;;;8.79;100.00;149865.61;1776928;79;21684;-66
2022/04/10 02:22:41;;;;;;;46.13;18.75;;;;;;;8.75;100.00;149855.25;1769358;79;21075;-68
2022/04/10 02:25:10;;;;;;;131.05;52.33;;;;;;;8.72;100.00;149848.75;1778584;79;21691;-68
2022/04/10 02:27:37;;;;;;;54.80;24.18;;;;;;;8.69;100.00;149839.67;1775060;80;21437;-63
2022/04/10 02:30:06;;;;;;;88.03;36.55;;;;;;;8.67;100.00;149835.81;1764107;79;22128;-66
2022/04/10 02:32:33;;;;;;;84.47;36.35;;;;;;;8.65;100.00;149829.31;1755586;81;21254;-63
2022/04/10 02:35:01;;;;;;;60.12;25.95;;;;;;;8.60;100.00;149818.95;1774290;80;21602;-63
2022/04/10 02:37:30;;;;;;;43.78;19.92;;;;;;;8.57;100.00;149811.19;1781963;79;20998;-63
2022/04/10 02:39:57;;;;;;;47.00;15.55;;;;;;;8.53;100.00;149800.83;1779479;79;21343;-63
2022/04/10 02:42:27;;;;;;;34.60;12.65;;;;;;;8.53;100.00;149799.50;1792420;79;21060;-64
2022/04/10 02:44:55;;;;;;;28.55;11.10;;;;;;;8.49;100.00;149789.11;1783110;79;21427;-63
2022/04/10 02:47:22;;;;;;;25.45;10.05;;;;;;;8.47;100.00;149785.19;1782348;79;21570;-64
2022/04/10 02:49:50;;;;;;;21.02;8.78;;;;;;;8.43;100.00;149774.84;1780241;79;21473;-63
2022/04/10 02:52:17;;;;;;;24.60;9.55;;;;;;;8.38;100.00;149761.89;1791972;79;21027;-63
2022/04/10 02:54:45;;;;;;;26.25;9.00;;;;;;;8.35;100.00;149755.41;1785003;79;21022;-64
2022/04/10 02:57:14;;;;;;;29.75;11.73;;;;;;;8.33;100.00;149748.95;1795147;79;21074;-64
2022/04/10 02:59:42;;;;;;;77.65;29.05;;;;;;;8.35;100.00;149754.12;1790299;78;21066;-64
2022/04/10 03:02:09;;;;;;;74.03;31.82;;;;;;;8.34;100.00;149751.53;1784110;79;21333;-64
2022/04/10 03:04:36;;;;;;;70.20;29.63;;;;;;;8.33;100.00;149748.95;1787446;78;20916;-64
2022/04/10 03:07:05;;;;;;;107.58;43.35;;;;;;;8.30;100.00;149743.78;1788576;79;21027;-64
2022/04/10 03:09:33;;;;;;;107.03;44.95;;;;;;;8.30;100.00;149743.78;1791314;79;21137;-64
2022/04/10 03:12:04;;;;;;;108.55;45.35;;;;;;;8.30;100.00;149743.78;1787012;79;21438;-64
2022/04/10 03:14:32;;;;;;;72.47;31.68;;;;;;;8.27;100.00;149734.69;1756949;79;21843;-64
2022/04/10 03:16:59;;;;;;;43.75;19.15;;;;;;;8.24;100.00;149728.19;1751254;80;21504;-67
2022/04/10 03:19:28;;;;;;;37.33;14.83;;;;;;;8.20;100.00;149717.84;1783791;79;21054;-68
2022/04/10 03:21:55;;;;;;;35.08;12.90;;;;;;;8.18;100.00;149712.66;1795229;79;20979;-67
2022/04/10 03:24:24;;;;;;;31.50;13.10;;;;;;;8.15;100.00;149704.89;1784862;79;21456;-68
2022/04/10 03:26:51;;;;;;;31.42;12.53;;;;;;;8.13;100.00;149699.72;1782662;79;21378;-68
2022/04/10 03:29:19;;;;;;;28.07;13.20;;;;;;;8.14;100.00;149702.31;1791215;79;21066;-67
2022/04/10 03:31:48;;;;;;;28.65;11.48;;;;;;;8.11;100.00;149695.81;1793640;79;20951;-67
2022/04/10 03:34:15;;;;;;;30.23;10.58;;;;;;;8.06;100.00;149681.55;1792531;79;21610;-67
2022/04/10 03:36:43;;;;;;;28.62;11.20;;;;;;;8.03;100.00;149675.11;1787843;78;20990;-67
2022/04/10 03:39:10;;;;;;;27.10;10.95;;;;;;;8.04;100.00;149677.69;1779639;79;21875;-68
2022/04/10 03:41:39;;;;;;;23.95;9.93;;;;;;;8.07;100.00;149684.14;1748973;81;21100;-67
2022/04/10 03:44:07;;;;;;;27.48;10.03;;;;;;;8.11;100.00;149695.81;1764510;79;21412;-67
2022/04/10 03:46:34;;;;;;;24.15;10.00;;;;;;;8.12;100.00;149697.13;1751466;81;21070;-67
2022/04/10 03:49:01;;;;;;;24.80;9.55;;;;;;;8.19;100.00;149715.25;1777350;80;21762;-67
2022/04/10 03:51:29;;;;;;;21.70;9.80;;;;;;;8.24;100.00;149726.92;1742084;80;21180;-67
2022/04/10 03:53:56;;;;;;;21.62;9.53;;;;;;;8.30;100.00;149743.78;1783425;79;21032;-67
2022/04/10 03:56:26;;;;;;;25.85;9.60;;;;;;;8.33;100.00;149748.95;1773789;80;21342;-67
2022/04/10 03:58:53;;;;;;;22.65;9.40;;;;;;;8.37;100.00;149759.31;1778093;80;21515;-66
2022/04/10 04:01:20;;;;;;;19.50;8.95;;;;;;;8.44;100.00;149777.44;1773995;79;21060;-67
2022/04/10 04:03:48;;;;;;;30.88;9.95;;;;;;;8.50;100.00;149791.75;1778947;80;21337;-67
2022/04/10 04:06:16;;;;;;;20.85;10.05;;;;;;;8.55;100.00;149806.00;1778515;80;21078;-67
2022/04/10 04:08:45;;;;;;;23.98;9.85;;;;;;;8.58;100.00;149813.78;1772545;80;21058;-67
2022/04/10 04:11:12;;;;;;;18.25;8.30;;;;;;;8.65;100.00;149829.31;1782724;79;21031;-68
2022/04/10 04:13:41;;;;;;;20.27;9.10;;;;;;;8.73;100.00;149850.03;1779892;79;21542;-64
2022/04/10 04:16:09;;;;;;;19.90;9.38;;;;;;;8.82;100.00;149873.38;1776305;80;21679;-62
2022/04/10 04:18:38;;;;;;;24.95;9.30;;;;;;;8.92;100.00;149896.69;1779710;80;21054;-64
2022/04/10 04:21:08;;;;;;;20.43;8.98;;;;;;;8.98;100.00;149912.28;1782908;80;22178;-64
2022/04/10 04:23:37;;;;;;;25.60;9.10;;;;;;;9.04;100.00;149927.81;1773862;80;21086;-63
2022/04/10 04:26:08;;;;;;;21.93;9.43;;;;;;;9.13;100.00;149951.12;1774799;80;21304;-64
2022/04/10 04:28:46;;;;;;;23.65;9.85;;;;;;;9.22;100.00;149971.91;1776751;80;21321;-63
2022/04/10 04:31:14;;;;;;;26.15;8.65;;;;;;;9.28;100.00;149987.44;1780399;80;20991;-63
2022/04/10 04:33:41;;;;;;;29.72;9.48;;;;;;;9.36;100.00;150008.17;1778528;80;21465;-63
2022/04/10 04:36:09;;;;;;;16.37;7.67;;;;;;;9.43;100.00;150026.36;1775552;80;21643;-63
2022/04/10 04:38:38;;;;;;;19.60;8.20;;;;;;;9.53;100.00;150049.67;1785159;79;21066;-63
2022/04/10 04:41:08;;;;;;;18.05;7.85;;;;;;;9.64;100.00;150078.22;1779613;79;21860;-65
2022/04/10 04:43:36;;;;;;;23.12;7.90;;;;;;;9.79;100.00;150114.50;1785778;79;21053;-63
2022/04/10 04:46:04;;;;;;;22.67;7.40;;;;;;;9.91;100.00;150144.34;1789009;79;21018;-63
2022/04/10 04:48:32;;;;;;;18.10;8.00;;;;;;;10.00;100.00;150168.98;1777473;78;21042;-63
2022/04/10 04:51:02;;;;;;;14.50;8.03;;;;;;;10.09;100.00;150191.03;1793013;78;20995;-64
2022/04/10 04:53:32;;;;;;;16.32;7.20;;;;;;;10.15;100.00;150205.31;1787655;79;21989;-64
2022/04/10 04:56:00;;;;;;;12.15;5.92;;;;;;;10.18;100.00;150213.09;1786921;79;21042;-64
2022/04/10 04:58:30;;;;;;;15.00;6.58;;;;;;;10.22;99.78;150223.47;1788339;78;21531;-64
2022/04/10 05:00:58;;;;;;;10.85;5.75;;;;;;;10.29;99.52;150240.34;1784813;79;21039;-64
2022/04/10 05:03:25;;;;;;;10.55;5.62;;;;;;;10.37;99.22;150259.81;1786888;78;21049;-64
2022/04/10 05:05:53;;;;;;;14.53;6.72;;;;;;;10.47;99.03;150285.78;1758413;79;21220;-64
2022/04/10 05:08:24;;;;;;;10.58;5.40;;;;;;;10.55;98.85;150306.58;1786154;78;21043;-64
2022/04/10 05:10:53;;;;;;;12.33;5.40;;;;;;;10.67;98.70;150335.09;1775766;79;21436;-64
2022/04/10 05:13:22;;;;;;;8.68;5.45;;;;;;;10.80;98.91;150368.87;1786338;79;21495;-64
2022/04/10 05:15:51;;;;;;;9.18;4.80;;;;;;;10.98;98.91;150413.00;1775950;79;20982;-64
2022/04/10 05:18:20;;;;;;;9.65;4.30;;;;;;;11.21;98.51;150470.12;1781982;79;21214;-64
2022/04/10 05:20:49;;;;;;;9.55;3.75;;;;;;;11.42;98.05;150524.66;1772908;79;20926;-63
2022/04/10 05:23:19;;;;;;;5.83;3.40;;;;;;;11.60;97.64;150570.09;1790007;79;21050;-64
2022/04/10 05:25:50;;;;;;;5.67;2.83;;;;;;;11.84;97.15;150628.56;1781998;79;20969;-62
2022/04/10 05:28:18;;;;;;;5.47;2.52;;;;;;;12.04;96.36;150680.53;1789210;78;21030;-63
2022/04/10 05:30:45;;;;;;;3.00;2.17;;;;;;;12.24;95.05;150729.89;1785322;78;21206;-64
2022/04/10 05:33:15;;;;;;;3.00;2.42;;;;;;;12.43;94.51;150776.67;1786204;79;21029;-68
2022/04/10 05:35:42;;;;;;;8.13;2.40;;;;;;;12.64;94.18;150828.66;1787877;79;21085;-68
2022/04/10 05:38:11;;;;;;;5.67;2.45;;;;;;;12.82;91.73;150874.13;1789526;79;21144;-63
2022/04/10 05:40:39;;;;;;;5.35;3.00;;;;;;;12.95;90.65;150906.67;1706605;81;21023;-64
2022/04/10 05:43:06;;;;;;;7.92;2.85;;;;;;;13.10;89.98;150944.36;1735222;82;21232;-67
2022/04/10 05:45:34;;;;;;;6.17;2.90;;;;;;;13.30;88.98;150995.05;1731686;81;21304;-69
2022/04/10 05:48:02;;;;;;;4.45;2.67;;;;;;;13.63;86.98;151077.03;1726306;81;21368;-69
2022/04/10 05:50:31;;;;;;;5.50;2.45;;;;;;;13.88;85.43;151142.05;1725556;82;21079;-69
2022/04/10 05:52:58;;;;;;;7.05;2.75;;;;;;;14.00;84.20;151171.97;1727746;82;21010;-68
2022/04/10 05:55:28;;;;;;;4.92;2.60;;;;;;;14.04;83.96;151182.41;1732571;81;21423;-69
2022/04/10 05:57:57;;;;;;;6.20;2.87;;;;;;;14.16;83.47;151211.00;1729745;81;21028;-68
2022/04/10 06:00:24;;;;;;;6.10;2.90;;;;;;;14.25;81.92;151234.41;1735022;81;21000;-65
2022/04/10 06:02:54;;;;;;;4.03;2.80;;;;;;;14.28;81.29;151242.25;1734588;81;21038;-65
2022/04/10 06:05:21;;;;;;;4.72;2.77;;;;;;;14.31;80.59;151250.05;1723408;82;21021;-68
2022/04/10 06:08:00;;;;;;;5.03;3.15;;;;;;;14.53;79.78;151304.70;1727005;82;21154;-64
2022/04/10 06:10:30;;;;;;;6.62;3.30;;;;;;;14.88;78.40;151393.22;1726727;82;21487;-65
2022/04/10 06:13:10;;;;;;;4.80;3.05;;;;;;;15.00;76.68;151421.88;1730381;82;21027;-64
2022/04/10 06:15:41;;;;;;;7.35;3.20;;;;;;;14.86;76.66;151388.03;1728474;81;21438;-67
2022/04/10 06:18:08;;;;;;;4.80;3.25;;;;;;;14.70;77.58;151346.31;1724375;82;21104;-64
2022/04/10 06:20:38;;;;;;;3.95;2.87;;;;;;;14.55;78.26;151309.91;1734187;81;21040;-64
2022/04/10 06:23:06;;;;;;;5.08;3.22;;;;;;;14.45;78.82;151283.84;1704801;82;21092;-67
2022/04/10 06:25:36;;;;;;;7.22;3.45;;;;;;;14.40;78.99;151270.84;1717893;83;21505;-65
2022/04/10 06:28:04;;;;;;;5.58;3.10;;;;;;;14.35;79.12;151257.84;1733040;81;21418;-65
2022/04/10 06:30:33;;;;;;;5.62;3.58;;;;;;;14.35;79.41;151259.12;1730828;82;21690;-65
2022/04/10 06:33:02;;;;;;;5.35;3.12;;;;;;;14.37;79.34;151263.05;1725566;82;21288;-63
2022/04/10 06:35:30;;;;;;;5.47;3.15;;;;;;;14.45;79.66;151285.17;1732550;82;21214;-67
2022/04/10 06:38:01;;;;;;;5.03;2.92;;;;;;;14.55;78.95;151308.58;1733487;82;21001;-67
2022/04/10 06:40:27;;;;;;;6.53;3.37;;;;;;;14.58;78.82;151316.38;1766518;79;21599;-68
2022/04/10 06:42:55;;;;;;;7.62;3.75;;;;;;;14.60;78.81;151322.91;1776319;80;21389;-68
2022/04/10 06:45:22;;;;;;;6.08;3.72;;;;;;;14.63;78.69;151328.11;1786910;78;22634;-68
2022/04/10 06:47:56;;;;;;;5.72;3.55;;;;;;;14.69;78.54;151343.72;1787227;79;21026;-65
2022/04/10 06:50:25;;;;;;;5.37;3.10;;;;;;;14.80;78.23;151372.41;1787271;80;21088;-63
2022/04/10 06:52:54;;;;;;;5.85;3.40;;;;;;;14.90;77.65;151398.42;1765052;80;21069;-67
2022/04/10 06:55:21;;;;;;;6.12;3.55;;;;;;;15.05;77.40;151434.89;1766147;80;21053;-65
2022/04/10 06:57:49;;;;;;;5.03;3.70;;;;;;;15.10;76.37;151446.63;1781751;80;21227;-65
2022/04/10 07:00:18;;;;;;;7.90;3.85;;;;;;;15.06;76.30;151436.22;1760649;80;21038;-68
2022/04/10 07:02:48;;;;;;;6.47;4.03;;;;;;;15.00;76.52;151421.88;1776421;80;21419;-68
2022/04/10 07:05:17;;;;;;;5.78;4.35;;;;;;;14.97;76.16;151415.36;1782680;80;21030;-64
2022/04/10 07:07:48;;;;;;;7.45;3.90;;;;;;;14.96;76.25;151412.75;1786648;78;21104;-65
2022/04/10 07:10:17;;;;;;;7.45;4.05;;;;;;;14.97;76.00;151414.08;1786961;80;21503;-64
2022/04/10 07:12:46;;;;;;;6.75;4.20;;;;;;;15.04;76.55;151432.28;1778499;78;20946;-64
2022/04/10 07:15:13;;;;;;;5.08;3.90;;;;;;;15.16;75.75;151463.56;1781880;79;21118;-64
2022/04/10 07:17:42;;;;;;;8.30;4.15;;;;;;;15.21;75.51;151473.97;1778557;79;21054;-68
2022/04/10 07:20:11;;;;;;;7.20;4.25;;;;;;;15.24;75.10;151481.77;1778062;80;21037;-67
2022/04/10 07:25:27;;;;;;;10.88;4.55;;;;;;;15.28;74.47;151492.17;1787580;78;21502;-68
2022/04/10 07:27:54;;;;;;;12.60;6.08;;;;;;;15.25;74.41;151485.69;1774941;78;21411;-64
2022/04/10 07:30:28;;;;;;;13.05;4.92;;;;;;;15.28;74.65;151492.17;1786447;79;21156;-64
2022/04/10 07:32:58;;;;;;;7.40;4.97;;;;;;;15.30;74.65;151497.38;1781748;80;21029;-65
2022/04/10 07:35:29;;;;;;;12.03;4.47;;;;;;;15.37;74.53;151515.64;1786103;80;21232;-69
2022/04/10 07:37:58;;;;;;;10.78;4.60;;;;;;;15.42;74.19;151528.66;1786778;79;21429;-65
2022/04/10 07:40:26;;;;;;;7.00;4.10;;;;;;;15.46;74.20;151539.06;1787037;79;21630;-68
2022/04/10 07:42:54;;;;;;;9.95;4.12;;;;;;;15.49;73.96;151544.25;1779088;78;20998;-69
2022/04/10 07:48:17;;;;;;;10.40;4.72;;;;;;;15.57;73.79;151565.08;1781457;78;21133;-67
2022/04/10 07:50:44;;;;;;;14.60;5.50;;;;;;;15.70;73.47;151598.95;1768050;80;21011;-66
2022/04/10 07:53:12;;;;;;;13.08;5.92;;;;;;;15.84;72.65;151632.84;1782547;80;21057;-67
2022/04/10 07:55:43;;;;;;;12.47;5.10;;;;;;;15.94;71.67;151658.91;1769438;80;20945;-68
2022/04/10 07:58:11;;;;;;;9.23;4.78;;;;;;;15.99;71.14;151671.92;1783833;79;22116;-68
2022/04/10 08:00:39;;;;;;;12.93;5.15;;;;;;;16.12;71.11;151704.48;1782038;80;21805;-68
2022/04/10 08:03:07;;;;;;;10.55;5.45;;;;;;;16.27;70.02;151742.31;1778660;78;21021;-67
2022/04/10 08:05:50;;;;;;;14.00;6.20;;;;;;;16.31;69.40;151751.41;1775850;80;21010;-67
2022/04/10 08:08:20;;;;;;;15.83;6.72;;;;;;;16.20;68.86;151724.03;1787118;80;20998;-68
2022/04/10 08:10:47;;;;;;;16.02;5.92;;;;;;;16.00;69.21;151674.53;1779115;78;21026;-68
2022/04/10 08:13:15;;;;;;;12.40;6.42;;;;;;;15.81;70.13;151625.03;1786463;79;21061;-67
2022/04/10 08:15:43;;;;;;;10.63;5.08;;;;;;;15.66;70.82;151588.55;1777972;80;21082;-68
2022/04/10 08:18:10;;;;;;;12.68;5.83;;;;;;;15.56;71.52;151563.80;1785655;78;21038;-67
2022/04/10 08:20:37;;;;;;;11.20;5.78;;;;;;;15.53;71.65;151556.00;1783017;80;20981;-68
2022/04/10 08:23:06;;;;;;;13.30;5.50;;;;;;;15.51;71.97;151549.47;1786815;80;21365;-64
2022/04/10 08:25:34;;;;;;;12.90;6.00;;;;;;;15.56;72.05;151562.47;1778003;78;21668;-64
2022/04/10 08:28:03;;;;;;;13.98;5.97;;;;;;;15.59;71.94;151570.33;1777120;80;20848;-64
2022/04/10 08:30:32;;;;;;;14.40;5.87;;;;;;;15.63;72.14;151579.41;1787765;79;21419;-65
2022/04/10 08:32:59;;;;;;;13.78;6.87;;;;;;;15.69;72.13;151596.34;1783105;78;21011;-63
2022/04/10 08:35:26;;;;;;;15.38;7.62;;;;;;;15.82;71.39;151627.63;1787106;78;21125;-64
2022/04/10 08:37:53;;;;;;;13.85;6.90;;;;;;;15.85;70.84;151635.44;1779091;80;21211;-65
2022/04/10 08:40:21;;;;;;;17.73;7.22;;;;;;;15.87;69.98;151640.64;1782991;79;21054;-64
2022/04/10 08:42:48;;;;;;;19.25;7.50;;;;;;;15.81;69.29;151625.03;1777472;80;20995;-64
2022/04/10 08:45:16;;;;;;;16.97;6.72;;;;;;;15.69;69.47;151596.34;1771663;80;21074;-64
2022/04/10 08:47:44;;;;;;;16.85;6.62;;;;;;;15.68;69.48;151593.75;1775798;80;21070;-65
2022/04/10 08:50:13;;;;;;;18.40;7.37;;;;;;;15.68;69.19;151593.75;1781378;79;21201;-64
2022/04/10 08:52:43;;;;;;;13.30;6.60;;;;;;;15.67;69.13;151589.81;1778317;79;21069;-64
2022/04/10 08:55:11;;;;;;;13.45;5.90;;;;;;;15.63;68.83;151579.41;1775990;80;21034;-64
2022/04/10 08:57:39;;;;;;;20.62;6.58;;;;;;;15.55;68.57;151561.20;1777666;80;21140;-64
2022/04/10 09:00:08;;;;;;;15.48;5.53;;;;;;;15.40;69.03;151523.44;1775565;79;21005;-65
2022/04/10 09:02:45;;;;;;;15.78;6.40;;;;;;;15.32;69.37;151502.58;1756485;81;21746;-64
2022/04/10 09:05:24;;;;;;;17.15;6.08;;;;;;;15.30;69.67;151497.38;1771646;79;20984;-65
2022/04/10 09:08:08;;;;;;;20.90;6.67;;;;;;;15.28;69.61;151493.50;1777986;80;20984;-65
2022/04/10 09:10:56;;;;;;;17.15;5.67;;;;;;;15.23;69.76;151479.16;1780297;80;21296;-64
2022/04/10 09:13:32;;;;;;;15.80;5.47;;;;;;;15.20;69.59;151471.36;1780736;79;21967;-65
2022/04/10 09:16:19;;;;;;;12.47;5.37;;;;;;;15.21;69.42;151473.97;1779942;80;22075;-65
2022/04/10 09:19:00;;;;;;;18.70;6.40;;;;;;;15.16;69.53;151462.22;1780042;79;21062;-69
2022/04/10 09:21:33;;;;;;;14.47;5.50;;;;;;;15.03;69.81;151429.69;1781878;80;21046;-68
2022/04/10 09:24:04;;;;;;;14.05;5.50;;;;;;;14.83;70.32;151380.22;1780229;79;21038;-68
2022/04/10 09:26:52;;;;;;;17.07;5.78;;;;;;;14.74;70.93;151356.81;1781942;80;21027;-69
2022/04/10 09:29:22;;;;;;;21.17;6.20;;;;;;;14.71;70.89;151349.00;1779355;80;22110;-67
2022/04/10 09:31:50;;;;;;;13.80;5.37;;;;;;;14.65;71.01;151334.63;1774563;79;21006;-68
2022/04/10 09:34:19;;;;;;;13.15;5.53;;;;;;;14.51;71.37;151299.50;1782254;79;21074;-68
2022/04/10 09:37:01;;;;;;;15.60;5.47;;;;;;;14.37;71.80;151264.38;1776152;80;20946;-68
2022/04/10 09:39:36;;;;;;;17.40;5.65;;;;;;;14.28;72.34;151242.25;1778706;80;21515;-70
2022/04/10 09:42:08;;;;;;;16.77;5.75;;;;;;;14.15;72.73;151209.73;1775821;79;22056;-69
2022/04/10 09:44:38;;;;;;;15.95;5.55;;;;;;;14.02;73.44;151177.16;1771035;79;21052;-69
2022/04/10 09:47:09;;;;;;;15.28;5.62;;;;;;;13.89;73.90;151144.64;1779459;79;21028;-68
2022/04/10 09:49:41;;;;;;;14.78;5.10;;;;;;;13.90;74.19;151145.97;1753029;80;21084;-68
2022/04/10 09:52:15;;;;;;;18.57;5.40;;;;;;;13.92;74.16;151151.17;1778714;80;21421;-67
2022/04/10 09:54:47;;;;;;;15.40;5.05;;;;;;;13.83;74.01;151129.05;1764374;79;21237;-68
2022/04/10 09:57:19;;;;;;;16.80;5.03;;;;;;;13.69;74.53;151092.61;1795548;78;20951;-68
2022/04/10 09:59:50;;;;;;;11.25;5.05;;;;;;;13.62;75.04;151075.75;1795775;78;21011;-67
2022/04/10 10:02:20;;;;;;;14.18;5.00;;;;;;;13.59;75.22;151069.22;1796041;79;20964;-67
2022/04/10 10:04:54;;;;;;;13.03;4.60;;;;;;;13.57;75.15;151062.70;1796367;79;21042;-68
2022/04/10 10:07:20;;;;;;;17.65;5.72;;;;;;;13.44;75.25;151031.52;1796008;78;21200;-68
2022/04/10 10:09:49;;;;;;;14.05;5.28;;;;;;;13.38;75.58;151015.89;1795886;78;20938;-68
2022/04/10 10:12:16;;;;;;;13.55;4.87;;;;;;;13.30;75.93;150996.37;1795597;79;21074;-68
2022/04/10 10:14:45;;;;;;;17.65;5.45;;;;;;;13.20;76.33;150969.06;1796061;79;20911;-68
2022/04/10 10:17:14;;;;;;;16.57;5.75;;;;;;;13.03;77.06;150927.45;1795738;79;21499;-68
2022/04/10 10:19:43;;;;;;;18.90;5.70;;;;;;;12.99;77.55;150917.06;1796096;79;21020;-68
2022/04/10 10:22:13;;;;;;;20.92;5.20;;;;;;;12.98;77.86;150914.47;1795272;79;21021;-68
2022/04/10 10:25:01;;;;;;;15.20;5.58;;;;;;;12.95;78.19;150906.67;1795304;78;21045;-67
2022/04/10 10:28:02;;;;;;;10.50;4.80;;;;;;;12.92;78.31;150898.83;1795388;78;21567;-68
2022/04/10 10:30:46;;;;;;;15.43;5.67;;;;;;;12.95;78.72;150906.67;1795422;78;21066;-69
2022/04/10 10:33:21;;;;;;;16.45;5.05;;;;;;;13.08;78.44;150940.44;1795865;79;24100;-69
2022/04/10 10:35:53;;;;;;;15.43;4.87;;;;;;;13.13;78.33;150953.44;1796150;79;21038;-63
2022/04/10 10:38:28;;;;;;;11.20;5.03;;;;;;;13.21;78.34;150971.66;1765218;79;20982;-67
2022/04/10 10:41:20;;;;;;;12.35;4.97;;;;;;;13.27;78.15;150987.25;1764855;78;20995;-69
2022/04/10 10:43:49;;;;;;;18.98;5.40;;;;;;;13.30;77.62;150995.05;1788516;78;21021;-64
2022/04/10 10:46:26;;;;;;;15.10;5.03;;;;;;;13.31;77.60;150997.66;1787913;78;21416;-65
2022/04/10 10:49:17;;;;;;;17.10;5.35;;;;;;;13.33;77.59;151004.17;1787174;78;20930;-65
2022/04/10 10:51:50;;;;;;;14.07;5.40;;;;;;;13.41;77.51;151023.69;1788324;78;21017;-65
2022/04/10 10:54:31;;;;;;;15.23;5.03;;;;;;;13.48;77.37;151039.31;1788410;78;21029;-67
2022/04/10 10:57:02;;;;;;;12.53;4.55;;;;;;;13.50;76.93;151044.52;1788251;78;21373;-65
2022/04/10 10:59:43;;;;;;;18.02;5.05;;;;;;;13.50;77.05;151045.84;1788342;80;21187;-63
2022/04/10 11:02:13;;;;;;;12.80;4.58;;;;;;;13.56;76.91;151060.11;1784771;78;20935;-65
2022/04/10 11:04:50;;;;;;;13.60;4.72;;;;;;;13.65;76.68;151083.55;1787922;80;21026;-63
2022/04/10 11:07:25;;;;;;;17.32;4.67;;;;;;;13.69;76.39;151093.94;1770897;80;21050;-63
2022/04/10 11:10:01;;;;;;;12.88;5.67;;;;;;;13.70;76.02;151096.53;1788792;78;21002;-63
2022/04/10 11:12:38;;;;;;;14.53;4.55;;;;;;;13.71;76.08;151099.14;1788156;80;21210;-65
2022/04/10 11:15:14;;;;;;;9.85;4.78;;;;;;;13.74;75.92;151106.94;1782487;78;20919;-66
2022/04/10 11:17:41;;;;;;;13.98;4.83;;;;;;;13.82;75.73;151125.17;1788844;78;21077;-63
2022/04/10 11:20:09;;;;;;;14.10;5.33;;;;;;;13.87;75.56;151139.44;1788744;79;20939;-63
2022/04/10 11:22:59;;;;;;;10.08;4.67;;;;;;;13.95;75.42;151157.69;1788889;79;20966;-65
2022/04/10 11:25:39;;;;;;;15.13;5.53;;;;;;;14.01;74.99;151174.56;1773005;80;21005;-64
2022/04/10 11:28:10;;;;;;;13.93;4.67;;;;;;;14.00;74.52;151170.69;1788554;79;21049;-64
2022/04/10 11:30:42;;;;;;;9.38;4.53;;;;;;;13.98;74.61;151166.77;1788607;78;21041;-64
2022/04/10 11:33:11;;;;;;;14.58;5.10;;;;;;;13.97;74.63;151162.89;1788570;78;20955;-63
2022/04/10 11:35:41;;;;;;;13.85;4.85;;;;;;;13.93;74.61;151153.77;1788355;78;21089;-64
2022/04/10 11:38:15;;;;;;;14.10;4.37;;;;;;;13.88;74.67;151140.77;1788673;78;21467;-63